createdAt,value
2022-10-20T00:00:30.246Z,20.20
2022-10-20T00:05:32.324Z,16.38
2022-10-20T00:10:34.302Z,14.48
2022-10-20T00:15:36.349Z,15.65
2022-10-20T00:20:40.569Z,18.65
2022-10-20T00:25:42.513Z,17.58
2022-10-20T00:30:44.418Z,18.48
2022-10-20T00:35:46.357Z,21.17
2022-10-20T00:40:54.896Z,18.13
2022-10-20T00:45:58.539Z,16.95
2022-10-20T00:51:00.496Z,13.68
2022-10-20T00:56:02.881Z,20.70
2022-10-20T01:01:05.200Z,18.90
2022-10-20T01:06:08.341Z,18.17
2022-10-20T01:11:10.339Z,13.95
2022-10-20T01:16:46.741Z,16.80
2022-10-20T01:22:27.127Z,18.02
2022-10-20T01:27:49.309Z,18.85
2022-10-20T01:32:56.799Z,20.52
2022-10-20T01:38:28.724Z,17.60
2022-10-20T01:43:35.744Z,23.67
2022-10-20T01:48:40.400Z,20.52
2022-10-20T01:53:42.377Z,16.98
2022-10-20T01:58:53.788Z,23.52
2022-10-20T02:04:01.593Z,23.90
2022-10-20T02:09:13.161Z,17.67
2022-10-20T02:14:18.452Z,16.67
2022-10-20T02:19:26.459Z,20.88
2022-10-20T02:24:32.139Z,17.60
2022-10-20T02:29:40.507Z,16.65
2022-10-20T02:34:43.042Z,16.25
2022-10-20T02:39:45.007Z,18.95
2022-10-20T02:44:47.007Z,22.50
2022-10-20T02:49:49.250Z,22.20
2022-10-20T02:54:51.128Z,17.92
2022-10-20T02:59:53.302Z,21.33
2022-10-20T03:04:55.464Z,19.20
2022-10-20T03:09:57.513Z,19.60
2022-10-20T03:14:59.404Z,26.75
2022-10-20T03:20:01.333Z,19.67
2022-10-20T03:25:04.004Z,19.52
2022-10-20T03:30:06.543Z,17.30
2022-10-20T03:35:08.854Z,22.63
2022-10-20T03:40:10.939Z,17.80
2022-10-20T03:45:15.027Z,20.80
2022-10-20T03:50:19.816Z,25.73
2022-10-20T03:55:21.851Z,22.80
2022-10-20T04:00:24.045Z,24.33
2022-10-20T04:05:26.323Z,26.63
2022-10-20T04:10:28.332Z,24.58
2022-10-20T04:15:30.225Z,22.48
2022-10-20T04:20:32.215Z,23.20
2022-10-20T04:25:34.340Z,24.30
2022-10-20T04:30:38.951Z,24.38
2022-10-20T04:35:41.167Z,25.30
2022-10-20T04:40:43.306Z,28.10
2022-10-20T04:45:45.164Z,28.50
2022-10-20T04:50:47.101Z,29.25
2022-10-20T04:55:54.965Z,27.23
2022-10-20T05:01:08.688Z,24.48
2022-10-20T05:06:21.265Z,27.90
2022-10-20T05:11:25.136Z,29.63
2022-10-20T05:16:27.524Z,40.90
2022-10-20T05:21:30.948Z,37.22
2022-10-20T05:26:37.091Z,43.13
2022-10-20T05:31:42.225Z,51.60
2022-10-20T05:36:50.386Z,67.70
2022-10-20T05:41:58.350Z,47.85
2022-10-20T05:47:00.277Z,52.00
2022-10-20T05:52:08.510Z,36.30
2022-10-20T05:57:16.655Z,40.95
2022-10-20T06:02:18.681Z,36.63
2022-10-20T06:07:20.582Z,40.55
2022-10-20T06:12:22.506Z,38.60
2022-10-20T06:17:24.386Z,28.08
2022-10-20T06:22:26.489Z,35.90
2022-10-20T06:27:28.579Z,29.10
2022-10-20T06:32:30.786Z,23.42
2022-10-20T06:37:33.882Z,25.33
2022-10-20T06:42:36.014Z,26.43
2022-10-20T06:47:38.408Z,21.30
2022-10-20T06:52:40.520Z,27.70
2022-10-20T06:57:42.584Z,56.42
2022-10-20T07:02:44.743Z,87.68
2022-10-20T07:07:46.712Z,200.73
2022-10-20T07:12:48.609Z,59.10
2022-10-20T07:17:50.541Z,168.95
2022-10-20T07:22:52.439Z,93.00
2022-10-20T07:27:54.742Z,139.35
2022-10-20T07:32:56.796Z,130.63
2022-10-20T07:37:58.778Z,42.08
2022-10-20T07:43:00.681Z,144.88
2022-10-20T07:48:04.473Z,112.03
2022-10-20T07:58:08.492Z,52.20
2022-10-20T08:03:10.513Z,61.78
2022-10-20T08:08:12.709Z,54.42
2022-10-20T08:13:15.002Z,49.28
2022-10-20T08:18:17.355Z,53.80
2022-10-20T08:23:19.470Z,51.53
2022-10-20T08:28:24.719Z,43.65
2022-10-20T08:33:28.297Z,45.08
2022-10-20T08:38:30.316Z,40.08
2022-10-20T08:43:36.557Z,40.00
2022-10-20T08:48:39.101Z,39.33
2022-10-20T08:53:41.030Z,34.92
2022-10-20T08:58:44.781Z,28.08
2022-10-20T09:08:51.780Z,25.45
2022-10-20T09:13:54.712Z,28.98
2022-10-20T09:18:58.819Z,35.45
2022-10-20T09:24:10.006Z,26.25
2022-10-20T09:29:35.744Z,30.10
2022-10-20T09:34:38.036Z,28.73
2022-10-20T09:39:45.818Z,29.48
2022-10-20T09:44:58.462Z,29.58
2022-10-20T09:50:06.764Z,27.10
2022-10-20T09:55:30.704Z,23.95
2022-10-20T10:00:37.587Z,28.95
2022-10-20T10:05:39.789Z,24.70
2022-10-20T10:10:45.258Z,23.73
2022-10-20T10:15:47.413Z,22.02
2022-10-20T10:21:02.582Z,24.00
2022-10-20T10:26:34.665Z,23.67
2022-10-20T10:31:50.095Z,22.33
2022-10-20T10:36:52.209Z,19.90
2022-10-20T10:42:32.354Z,17.33
2022-10-20T10:47:46.774Z,11.13
2022-10-20T10:53:34.651Z,6.05
2022-10-20T10:59:02.025Z,6.63
2022-10-20T11:04:31.852Z,6.53
2022-10-20T11:10:01.144Z,13.30
2022-10-20T11:15:39.396Z,6.28
2022-10-20T11:20:59.872Z,7.47
2022-10-20T11:26:28.203Z,7.90
2022-10-20T11:31:54.747Z,5.65
2022-10-20T11:37:19.846Z,6.72
2022-10-20T11:43:00.193Z,6.95
2022-10-20T11:48:12.289Z,5.70
2022-10-20T11:53:35.452Z,6.07
2022-10-20T11:58:58.549Z,5.37
2022-10-20T12:04:12.521Z,7.53
2022-10-20T12:09:33.069Z,6.43
2022-10-20T12:14:46.465Z,9.13
2022-10-20T12:19:52.478Z,10.60
2022-10-20T12:24:54.564Z,7.03
2022-10-20T12:30:02.589Z,3.88
2022-10-20T12:35:10.685Z,6.68
2022-10-20T12:40:12.760Z,6.32
2022-10-20T12:45:20.790Z,4.20
2022-10-20T12:50:39.429Z,4.18
2022-10-20T12:55:49.795Z,5.55
2022-10-20T13:00:58.635Z,8.13
2022-10-20T13:06:01.734Z,3.77
2022-10-20T13:11:37.839Z,5.40
2022-10-20T13:16:46.773Z,3.47
2022-10-20T13:21:50.989Z,2.17
2022-10-20T13:26:57.517Z,4.50
2022-10-20T13:32:21.268Z,3.83
2022-10-20T13:37:56.325Z,3.72
2022-10-20T13:43:31.354Z,2.80
2022-10-20T13:48:45.719Z,3.60
2022-10-20T13:53:51.256Z,14.50
2022-10-20T13:59:07.145Z,6.78
2022-10-20T14:04:37.432Z,8.52
2022-10-20T14:09:45.292Z,11.57
2022-10-20T14:14:49.844Z,8.15
2022-10-20T14:20:07.913Z,17.95
2022-10-20T14:25:10.804Z,9.57
2022-10-20T14:30:18.062Z,15.40
2022-10-20T14:35:28.904Z,31.17
2022-10-20T14:40:36.364Z,26.25
2022-10-20T14:45:38.742Z,42.95
2022-10-20T14:50:41.127Z,46.05
2022-10-20T14:55:43.185Z,20.63
2022-10-20T15:00:45.321Z,41.05
2022-10-20T15:05:52.523Z,12.55
2022-10-20T15:10:55.159Z,11.40
2022-10-20T15:16:02.580Z,11.38
2022-10-20T15:21:05.061Z,12.05
2022-10-20T15:26:14.329Z,20.92
2022-10-20T15:31:20.828Z,62.85
2022-10-20T15:36:33.513Z,44.28
2022-10-20T15:41:36.839Z,98.30
2022-10-20T15:46:39.223Z,116.80
2022-10-20T15:51:44.180Z,96.30
2022-10-20T15:56:46.192Z,95.55
2022-10-20T16:01:48.372Z,75.93
2022-10-20T16:06:57.759Z,88.68
2022-10-20T16:12:01.273Z,95.68
2022-10-20T16:17:03.353Z,80.53
2022-10-20T16:22:05.315Z,61.80
2022-10-20T16:27:07.572Z,56.08
2022-10-20T16:32:09.606Z,60.13
2022-10-20T16:37:11.791Z,50.75
2022-10-20T16:42:14.038Z,63.55
2022-10-20T16:47:16.278Z,41.40
2022-10-20T16:52:18.583Z,55.75
2022-10-20T16:57:20.724Z,49.50
2022-10-20T17:02:23.329Z,63.03
2022-10-20T17:07:25.389Z,66.95
2022-10-20T17:12:27.559Z,106.28
2022-10-20T17:17:29.621Z,129.10
2022-10-20T17:22:32.650Z,117.97
2022-10-20T17:27:35.105Z,119.07
2022-10-20T17:32:37.631Z,114.45
2022-10-20T17:37:40.080Z,188.60
2022-10-20T17:42:42.152Z,149.05
2022-10-20T17:47:44.580Z,163.98
2022-10-20T17:52:46.858Z,249.13
2022-10-20T17:57:50.084Z,256.00
2022-10-20T18:02:52.214Z,185.98
2022-10-20T18:07:54.508Z,201.85
2022-10-20T18:12:56.572Z,181.70
2022-10-20T18:17:58.660Z,191.75
2022-10-20T18:23:00.904Z,173.45
2022-10-20T18:28:02.957Z,161.95
2022-10-20T18:33:04.945Z,105.45
2022-10-20T18:38:07.058Z,95.05
2022-10-20T18:43:09.072Z,93.93
2022-10-20T18:48:11.242Z,98.47
2022-10-20T18:53:14.371Z,87.93
2022-10-20T18:58:16.381Z,106.28
2022-10-20T19:03:18.576Z,119.97
2022-10-20T19:08:20.555Z,104.43
2022-10-20T19:13:25.959Z,93.93
2022-10-20T19:18:29.648Z,79.13
2022-10-20T19:28:37.675Z,77.00
2022-10-20T19:33:40.308Z,148.10
2022-10-20T19:38:43.103Z,225.68
2022-10-20T19:43:45.401Z,222.45
2022-10-20T19:48:48.358Z,198.27
2022-10-20T19:53:50.399Z,154.30
2022-10-20T19:58:53.129Z,136.55
2022-10-20T20:03:57.592Z,167.52
2022-10-20T20:09:02.175Z,140.73
2022-10-20T20:14:16.708Z,131.90
2022-10-20T20:19:18.709Z,124.82
2022-10-20T20:24:20.885Z,104.45
2022-10-20T20:29:22.863Z,84.40
2022-10-20T20:34:24.902Z,78.47
2022-10-20T20:39:27.173Z,89.50
2022-10-20T20:44:29.379Z,87.68
2022-10-20T20:49:31.546Z,85.25
2022-10-20T20:54:33.690Z,82.03
2022-10-20T20:59:35.621Z,81.68
2022-10-20T21:04:37.552Z,83.55
2022-10-20T21:09:39.548Z,79.00
2022-10-20T21:14:41.651Z,79.60
2022-10-20T21:19:43.652Z,74.85
2022-10-20T21:24:45.602Z,62.70
2022-10-20T21:29:48.514Z,50.40
2022-10-20T21:34:50.420Z,61.03
2022-10-20T21:39:52.440Z,59.33
2022-10-20T21:44:54.381Z,46.97
2022-10-20T21:49:56.584Z,53.67
2022-10-20T21:54:58.500Z,50.92
2022-10-20T22:00:00.570Z,50.95
2022-10-20T22:05:02.794Z,47.20
2022-10-20T22:10:05.364Z,47.15
2022-10-20T22:15:07.811Z,51.92
2022-10-20T22:20:10.420Z,46.67
2022-10-20T22:25:12.543Z,43.97
2022-10-20T22:30:14.557Z,54.20
2022-10-20T22:35:16.668Z,45.15
2022-10-20T22:40:18.797Z,56.53
2022-10-20T22:45:20.814Z,59.72
2022-10-20T22:50:23.132Z,50.30
2022-10-20T22:55:25.075Z,54.97
2022-10-20T23:00:27.106Z,50.65
2022-10-20T23:05:29.057Z,52.10
2022-10-20T23:10:31.139Z,53.53
2022-10-20T23:15:33.117Z,43.20
2022-10-20T23:20:35.110Z,36.25
2022-10-20T23:25:40.580Z,40.03
2022-10-20T23:30:42.598Z,46.10
2022-10-20T23:35:47.099Z,36.80
2022-10-20T23:40:49.253Z,41.92
2022-10-20T23:45:51.301Z,39.40
2022-10-20T23:50:53.974Z,38.58
2022-10-20T23:55:56.007Z,37.78
